Little Orleans, MD (21766)

10:15 AM EST on February 10, 2016 (GMT -0500)
Four Quarters | | Change Station
CLOSE
Current Station
Personal Weather Station
Location: Artemas, PA
Elevation: 768 ft
Nearby Weather Stations

Elev 768 ft 39.75 °N, 78.37 °W | Updated 4 seconds ago

Overcast
Overcast
27.9 °F
Feels Like 28 °F
N
1.3
Wind Variable Wind from West
Gusts 2.5 mph

Today
High -- | Low -- °F
--% Chance of Precip.
Yesterday
High -- | Low -- °F
Precip. -- in
Pressure 29.85 in
Visibility 5.0 miles
Clouds Scattered Clouds 800 ft
Mostly Cloudy 1500 ft
Mostly Cloudy 2700 ft
Windchill 28 °F
Dew Point 12 °F
Humidity 50%
Rainfall 0.00 in
Snow Depth Not available.
7:12 AM 5:43 PM
Waxing Crescent, 6% visible
METAR KCBE 101456Z AUTO 23005KT 5SM SCT008 BKN015 BKN027 M02/M08 A2985 RMK AO1
Pressure 29.85 in
Visibility 5.0 miles
Clouds Scattered Clouds 800 ft
Mostly Cloudy 1500 ft
Mostly Cloudy 2700 ft
Windchill 28 °F
Dew Point 12 °F
Humidity 50%
Rainfall 0.00 in
Snow Depth Not available.
7:12 AM 5:43 PM
Waxing Crescent, 6% visible
METAR KCBE 101456Z AUTO 23005KT 5SM SCT008 BKN015 BKN027 M02/M08 A2985 RMK AO1

10-Day Weather Forecast

Almanac

Astronomy

Feb. 10, 2016 Rise Set
Actual Time
Civil Twilight
Nautical Twilight
Astronomical Twilight
Moon
Length of Visible Light
Length of Day
Tomorrow will be .
, % of the Moon is Illuminated

Today's Extremes

State Highs State Lows

Community

WunderPhotos

Upload Photos

1,891,857 photos uploaded!

WunderBlog® & News

Nearby

Air Quality

  Air Quality AQ Index Pollutant
Not available.

Snow Depth

Station Depth Elevation

Earthquake Activity

City Distance Mag. Time & Date
Minimum magnitude displayed is 2.5.

Coastal Water Temperatures

Place Temperature

Stations

Nearby Weather Stations

Station Location Temp. Windchill Dew Point Humidity Wind Precip. Elev Updated Type
                   

Watches & Warnings

There are currently no watches in effect.